Time;durP1;ratioP1;P1;durP2;ratioP2;P2;SDS_P1;SDS_P2;PMS_P1;PMS_P2;Temp;Humidity;BMP_temperature;BMP_pressure;BME280_temperature;BME280_humidity;BME280_pressure;Samples;Min_cycle;Max_cycle;Signal;HPM_P1;HPM_P2
2021/03/30 00:01:12;;;;;;;15.25;5.07;;;14.40;50.50;;;;;;5065681;28;20024;-47
2021/03/30 00:03:38;;;;;;;9.00;5.20;;;14.40;50.70;;;;;;5066148;28;20074;-45
2021/03/30 00:06:03;;;;;;;7.47;4.53;;;14.30;50.80;;;;;;5073084;28;20036;-45
2021/03/30 00:08:29;;;;;;;9.82;5.20;;;14.40;50.30;;;;;;5086514;28;20483;-46
2021/03/30 00:10:55;;;;;;;8.43;4.47;;;14.40;50.70;;;;;;5086339;28;20024;-46
2021/03/30 00:13:22;;;;;;;9.55;5.13;;;14.30;50.50;;;;;;5085675;28;20028;-44
2021/03/30 00:15:48;;;;;;;10.98;5.55;;;14.30;50.90;;;;;;5069727;28;20036;-44
2021/03/30 00:18:13;;;;;;;8.43;5.20;;;14.20;50.50;;;;;;5066025;28;20109;-45
2021/03/30 00:20:39;;;;;;;7.57;4.82;;;14.10;51.10;;;;;;5064613;28;20058;-44
2021/03/30 00:23:04;;;;;;;7.75;4.70;;;14.10;51.70;;;;;;5066004;28;20104;-44
2021/03/30 00:25:30;;;;;;;7.70;4.55;;;14.00;51.70;;;;;;5065242;28;20206;-46
2021/03/30 00:27:56;;;;;;;9.75;5.10;;;14.00;51.70;;;;;;5067027;28;20078;-45
2021/03/30 00:30:22;;;;;;;11.35;5.50;;;13.90;51.40;;;;;;5051172;28;20285;-47
2021/03/30 00:32:48;;;;;;;10.68;4.95;;;13.90;51.40;;;;;;5069668;28;20309;-44
2021/03/30 00:35:13;;;;;;;15.82;5.22;;;13.90;51.70;;;;;;5070102;28;20051;-45
2021/03/30 00:37:39;;;;;;;11.15;4.93;;;13.80;52.40;;;;;;5089983;28;20032;-45
2021/03/30 00:40:07;;;;;;;7.60;4.63;;;13.70;53.20;;;;;;5090065;28;20028;-44
2021/03/30 00:42:33;;;;;;;11.23;5.60;;;13.70;52.00;;;;;;5089927;28;20051;-46
2021/03/30 00:44:59;;;;;;;9.13;5.35;;;13.60;52.10;;;;;;5070255;28;20016;-43
2021/03/30 00:47:26;;;;;;;13.07;5.72;;;13.60;52.30;;;;;;5071762;28;20038;-44
2021/03/30 00:49:52;;;;;;;9.25;5.13;;;13.50;52.60;;;;;;5089915;28;20059;-44
2021/03/30 00:52:19;;;;;;;10.38;5.15;;;13.50;52.80;;;;;;5089597;28;20067;-44
2021/03/30 00:54:45;;;;;;;8.77;4.85;;;13.50;52.90;;;;;;5089637;28;20036;-45
2021/03/30 00:57:13;;;;;;;9.32;5.25;;;13.40;53.10;;;;;;5088987;28;20036;-45
2021/03/30 00:59:39;;;;;;;10.85;5.20;;;13.40;53.50;;;;;;5089884;28;20031;-44
2021/03/30 01:02:05;;;;;;;12.55;5.38;;;13.30;53.70;;;;;;5089440;28;20424;-47
2021/03/30 01:04:31;;;;;;;8.70;5.32;;;13.30;53.50;;;;;;5089496;28;20111;-46
2021/03/30 01:06:57;;;;;;;9.77;5.53;;;13.20;53.90;;;;;;5089002;28;20123;-45
2021/03/30 01:09:46;;;;;;;15.23;5.68;;;13.10;54.40;;;;;;5089563;28;20433;-44
2021/03/30 01:12:42;;;;;;;12.73;5.50;;;13.10;54.50;;;;;;5087965;28;20109;-45
2021/03/30 01:15:32;;;;;;;13.93;5.95;;;13.00;54.30;;;;;;5085741;28;20123;-44
2021/03/30 01:18:26;;;;;;;12.90;6.47;;;13.00;55.10;;;;;;5085485;28;20089;-44
2021/03/30 01:21:30;;;;;;;12.02;5.45;;;13.00;54.60;;;;;;5089063;28;20020;-44
2021/03/30 01:24:09;;;;;;;12.98;5.78;;;12.90;54.60;;;;;;5089107;28;20016;-46
2021/03/30 01:26:48;;;;;;;13.63;5.93;;;12.90;54.70;;;;;;5088722;28;20481;-43
2021/03/30 01:29:19;;;;;;;8.73;5.93;;;12.90;54.90;;;;;;5089168;28;20042;-45
2021/03/30 01:31:49;;;;;;;8.95;5.57;;;12.80;55.30;;;;;;5088436;28;20036;-44
2021/03/30 01:34:20;;;;;;;11.48;6.35;;;12.80;55.20;;;;;;5070620;28;20032;-44
2021/03/30 01:36:46;;;;;;;15.68;5.50;;;12.80;54.90;;;;;;5088427;28;20426;-43
2021/03/30 01:39:15;;;;;;;13.05;6.38;;;12.80;55.00;;;;;;5087687;28;20039;-46
2021/03/30 01:41:45;;;;;;;12.30;6.13;;;12.80;54.50;;;;;;5070308;28;20481;-43
2021/03/30 01:44:12;;;;;;;10.73;6.00;;;12.80;54.50;;;;;;5088996;28;20051;-43
2021/03/30 01:46:40;;;;;;;12.43;6.13;;;12.80;54.10;;;;;;5086500;28;20035;-43
2021/03/30 01:49:06;;;;;;;9.98;6.10;;;12.90;54.40;;;;;;5088801;28;20028;-43
2021/03/30 01:51:33;;;;;;;10.52;6.25;;;12.90;54.30;;;;;;5088522;28;20040;-43
2021/03/30 01:54:00;;;;;;;11.60;6.38;;;12.90;53.90;;;;;;5088617;28;20394;-43
2021/03/30 01:56:27;;;;;;;9.50;6.20;;;12.90;53.60;;;;;;5088148;28;20024;-43
2021/03/30 01:58:55;;;;;;;14.48;7.57;;;12.90;53.90;;;;;;5088405;28;20386;-43
2021/03/30 02:01:22;;;;;;;12.07;6.55;;;13.00;53.40;;;;;;5088048;28;20016;-43
2021/03/30 02:03:49;;;;;;;14.82;6.38;;;13.00;53.30;;;;;;5088557;28;20032;-44
2021/03/30 02:06:16;;;;;;;12.10;6.95;;;13.10;53.30;;;;;;5088157;28;20477;-42
2021/03/30 02:08:41;;;;;;;11.65;6.78;;;13.10;53.00;;;;;;5087759;28;20036;-43
2021/03/30 02:11:07;;;;;;;18.15;7.50;;;13.20;52.50;;;;;;5088246;28;20028;-46
2021/03/30 02:13:41;;;;;;;13.00;7.30;;;13.20;52.80;;;;;;5088377;28;20028;-43
2021/03/30 02:16:13;;;;;;;16.90;7.45;;;13.20;52.80;;;;;;5083746;28;20031;-42
2021/03/30 02:18:45;;;;;;;11.35;7.15;;;13.20;52.80;;;;;;5077862;28;20064;-42
2021/03/30 02:21:21;;;;;;;11.63;7.15;;;13.10;53.10;;;;;;5087799;28;20367;-42
2021/03/30 02:23:48;;;;;;;12.27;6.93;;;13.10;53.20;;;;;;5088218;28;20489;-44
2021/03/30 02:26:16;;;;;;;18.00;7.18;;;13.10;52.60;;;;;;5069256;28;20500;-43
2021/03/30 02:28:46;;;;;;;8.73;6.25;;;13.10;52.80;;;;;;5087770;28;20027;-44
2021/03/30 02:31:20;;;;;;;15.27;7.40;;;13.10;53.50;;;;;;5086914;28;20034;-43
2021/03/30 02:33:49;;;;;;;11.45;6.72;;;13.00;53.00;;;;;;5069340;28;20036;-42
2021/03/30 02:36:18;;;;;;;8.55;5.97;;;13.00;53.30;;;;;;5087178;28;20401;-43
2021/03/30 02:38:44;;;;;;;10.70;6.97;;;13.00;53.40;;;;;;5087646;28;20038;-42
2021/03/30 02:41:10;;;;;;;11.90;7.40;;;12.90;53.20;;;;;;5087538;28;20028;-43
2021/03/30 02:43:36;;;;;;;10.23;6.25;;;12.90;53.50;;;;;;5087668;28;20084;-43
2021/03/30 02:46:03;;;;;;;13.35;7.03;;;12.80;53.80;;;;;;5086660;28;20032;-43
2021/03/30 02:48:31;;;;;;;11.45;6.30;;;12.80;54.00;;;;;;5087543;28;20032;-42
2021/03/30 02:50:58;;;;;;;13.38;7.57;;;12.80;53.90;;;;;;5087095;28;20061;-43
2021/03/30 02:53:24;;;;;;;9.93;6.85;;;12.70;54.00;;;;;;5087596;28;20374;-44
2021/03/30 02:55:50;;;;;;;18.13;7.85;;;12.70;53.90;;;;;;5068502;28;20043;-43
2021/03/30 02:58:17;;;;;;;13.52;7.63;;;12.70;54.10;;;;;;5086075;28;20032;-45
2021/03/30 03:00:44;;;;;;;12.07;8.35;;;12.70;54.00;;;;;;5068414;28;20603;-43
2021/03/30 03:03:12;;;;;;;12.00;7.00;;;12.70;54.00;;;;;;5087363;28;20058;-43
2021/03/30 03:05:38;;;;;;;17.90;7.45;;;12.70;54.20;;;;;;5086874;28;20046;-45
2021/03/30 03:08:06;;;;;;;12.95;7.47;;;12.70;54.30;;;;;;5087235;28;20024;-44
2021/03/30 03:10:33;;;;;;;14.40;7.40;;;12.60;54.70;;;;;;5086977;28;20019;-45
2021/03/30 03:13:00;;;;;;;15.00;7.68;;;12.60;54.50;;;;;;5087202;28;20398;-44
2021/03/30 03:15:28;;;;;;;13.13;7.13;;;12.50;54.50;;;;;;5086154;28;20032;-43
2021/03/30 03:17:55;;;;;;;14.95;7.90;;;12.50;55.10;;;;;;5080117;28;20023;-45
2021/03/30 03:20:24;;;;;;;14.10;7.13;;;12.40;55.50;;;;;;5086320;28;20028;-44
2021/03/30 03:22:49;;;;;;;13.05;7.10;;;12.40;55.60;;;;;;5086666;28;20039;-43
2021/03/30 03:25:16;;;;;;;8.15;6.10;;;12.30;56.10;;;;;;5067573;28;20031;-44
2021/03/30 03:27:42;;;;;;;14.70;6.60;;;12.30;55.90;;;;;;5084930;28;20035;-44
2021/03/30 03:30:12;;;;;;;11.63;7.00;;;12.20;55.80;;;;;;5077385;28;20012;-44
2021/03/30 03:32:41;;;;;;;14.73;6.95;;;12.20;56.20;;;;;;5094778;28;20496;-44
2021/03/30 03:35:11;;;;;;;13.15;6.53;;;12.20;55.90;;;;;;5090849;28;20055;-44
2021/03/30 03:37:42;;;;;;;11.82;7.80;;;12.20;56.20;;;;;;5086089;28;20435;-43
2021/03/30 03:40:07;;;;;;;12.15;7.63;;;12.10;56.30;;;;;;5085980;28;20028;-44
2021/03/30 03:42:36;;;;;;;11.55;8.05;;;12.10;56.10;;;;;;5089182;28;20020;-44
2021/03/30 03:45:03;;;;;;;14.95;7.65;;;12.10;56.40;;;;;;5095393;28;20023;-45
2021/03/30 03:47:28;;;;;;;10.45;7.50;;;12.10;56.10;;;;;;5096647;28;20439;-44
2021/03/30 03:49:54;;;;;;;15.95;7.85;;;12.10;56.60;;;;;;5078972;28;20102;-45
2021/03/30 03:52:21;;;;;;;12.50;7.97;;;12.10;56.10;;;;;;5096179;28;20493;-44
2021/03/30 03:54:47;;;;;;;17.30;8.38;;;12.10;55.90;;;;;;5085436;28;20024;-44
2021/03/30 03:57:19;;;;;;;16.38;8.52;;;12.10;55.90;;;;;;5085366;28;20065;-44
2021/03/30 03:59:46;;;;;;;11.05;7.65;;;12.20;55.80;;;;;;5086026;28;20453;-43
2021/03/30 04:02:16;;;;;;;9.75;7.35;;;12.20;55.50;;;;;;5084948;28;20024;-44
2021/03/30 04:04:59;;;;;;;14.95;7.45;;;12.20;55.60;;;;;;5086376;28;20447;-44
2021/03/30 04:07:33;;;;;;;13.18;7.53;;;12.20;55.60;;;;;;5086217;28;20062;-43
2021/03/30 04:10:01;;;;;;;19.40;8.25;;;12.20;55.50;;;;;;5086421;28;20131;-44
2021/03/30 04:12:30;;;;;;;12.27;7.45;;;12.20;55.70;;;;;;5086005;28;20060;-44
2021/03/30 04:14:58;;;;;;;14.90;7.63;;;12.10;55.70;;;;;;5085982;28;20020;-46
2021/03/30 04:17:23;;;;;;;12.70;8.02;;;12.10;55.60;;;;;;5085788;28;20165;-43
2021/03/30 04:19:49;;;;;;;13.38;7.28;;;12.20;55.40;;;;;;5076157;28;20017;-44
2021/03/30 04:22:16;;;;;;;12.68;7.80;;;12.20;55.80;;;;;;5085427;28;20023;-44
2021/03/30 04:24:42;;;;;;;15.07;8.43;;;12.10;55.70;;;;;;5091072;28;20020;-45
2021/03/30 04:27:09;;;;;;;15.40;7.90;;;12.10;55.80;;;;;;5086957;28;20024;-44
2021/03/30 04:29:35;;;;;;;13.25;7.38;;;12.10;55.40;;;;;;5085294;28;20023;-44
2021/03/30 04:32:00;;;;;;;15.77;8.68;;;12.10;55.80;;;;;;5085112;28;20028;-43
2021/03/30 04:34:25;;;;;;;21.33;8.52;;;12.10;55.80;;;;;;5086028;28;20209;-43
2021/03/30 04:36:51;;;;;;;12.52;7.82;;;12.10;55.20;;;;;;5085794;28;20028;-43
2021/03/30 04:39:16;;;;;;;13.70;7.82;;;12.20;55.50;;;;;;5086260;28;20016;-43
2021/03/30 04:41:42;;;;;;;15.18;8.82;;;12.20;55.60;;;;;;5085704;28;20024;-45
2021/03/30 04:44:08;;;;;;;12.23;7.90;;;12.20;55.20;;;;;;5067709;28;20534;-44
2021/03/30 04:46:33;;;;;;;12.98;8.45;;;12.20;55.30;;;;;;5084903;28;20596;-45
2021/03/30 04:48:59;;;;;;;12.40;7.75;;;12.20;55.50;;;;;;5085847;28;20436;-44
2021/03/30 04:51:24;;;;;;;10.77;7.82;;;12.20;55.50;;;;;;5085640;28;20406;-44
2021/03/30 04:53:50;;;;;;;20.42;8.77;;;12.10;55.20;;;;;;5085880;28;20028;-44
2021/03/30 04:56:15;;;;;;;15.32;8.55;;;12.20;55.50;;;;;;5085509;28;20323;-45
2021/03/30 04:58:41;;;;;;;16.15;8.75;;;12.10;55.50;;;;;;5085905;28;20024;-43
2021/03/30 05:01:06;;;;;;;14.13;8.52;;;12.10;55.60;;;;;;5085369;28;20031;-43
2021/03/30 05:03:32;;;;;;;13.38;8.88;;;12.10;55.70;;;;;;5085926;28;20028;-43
2021/03/30 05:05:57;;;;;;;14.27;8.18;;;12.10;56.40;;;;;;5085470;28;20119;-43
2021/03/30 05:08:23;;;;;;;12.98;8.50;;;12.00;56.40;;;;;;5086074;28;20016;-44
2021/03/30 05:10:52;;;;;;;15.18;8.75;;;12.10;56.10;;;;;;5085644;28;20054;-45
2021/03/30 05:13:18;;;;;;;17.63;9.25;;;12.10;56.10;;;;;;5085817;28;20405;-45
2021/03/30 05:15:44;;;;;;;13.77;8.43;;;12.20;56.10;;;;;;5087500;28;20032;-43
2021/03/30 05:18:09;;;;;;;17.95;10.27;;;12.10;56.50;;;;;;5088906;28;20035;-44
2021/03/30 05:20:35;;;;;;;15.15;8.85;;;12.10;56.40;;;;;;5084704;28;20103;-46
2021/03/30 05:23:00;;;;;;;18.67;9.23;;;12.10;57.10;;;;;;5089190;28;20028;-46
2021/03/30 05:25:26;;;;;;;15.50;9.18;;;12.00;56.70;;;;;;5090513;28;20020;-46
2021/03/30 05:27:51;;;;;;;17.33;8.85;;;12.00;57.30;;;;;;5091294;28;20488;-43
2021/03/30 05:30:17;;;;;;;14.90;8.55;;;12.00;56.90;;;;;;5091077;28;20040;-43
2021/03/30 05:32:43;;;;;;;16.13;8.95;;;12.00;57.30;;;;;;5090476;28;20470;-46
2021/03/30 05:35:11;;;;;;;17.42;8.90;;;12.00;57.10;;;;;;5082973;28;20052;-44
2021/03/30 05:37:37;;;;;;;14.40;9.15;;;12.00;56.70;;;;;;5098571;28;20089;-44
2021/03/30 05:40:09;;;;;;;14.85;9.10;;;12.10;57.10;;;;;;5084496;28;20020;-45
2021/03/30 05:42:34;;;;;;;16.98;8.80;;;12.10;56.90;;;;;;5090867;28;20028;-44
2021/03/30 05:45:01;;;;;;;13.98;9.48;;;12.10;57.10;;;;;;5092790;28;20031;-43
2021/03/30 05:47:28;;;;;;;19.42;9.55;;;12.10;57.10;;;;;;5089624;28;20022;-44
2021/03/30 05:49:54;;;;;;;19.13;10.20;;;12.20;57.10;;;;;;5090336;28;20077;-44
2021/03/30 05:52:28;;;;;;;18.35;9.75;;;12.20;57.20;;;;;;5084959;28;20024;-44
2021/03/30 05:54:56;;;;;;;18.85;10.07;;;12.20;56.90;;;;;;5089928;28;20032;-43
2021/03/30 05:57:27;;;;;;;18.33;10.95;;;12.30;56.80;;;;;;5084591;28;20081;-44
2021/03/30 05:59:57;;;;;;;15.18;8.63;;;12.30;56.90;;;;;;5088023;28;20404;-44
2021/03/30 06:02:38;;;;;;;20.00;11.07;;;12.40;56.80;;;;;;5069013;28;20024;-43
2021/03/30 06:05:04;;;;;;;20.10;10.15;;;12.40;56.20;;;;;;5084354;28;20114;-43
2021/03/30 06:07:30;;;;;;;16.63;9.80;;;12.50;56.50;;;;;;5089942;28;20050;-43
2021/03/30 06:09:57;;;;;;;20.05;10.20;;;12.50;56.10;;;;;;5083161;28;20028;-43
2021/03/30 06:12:23;;;;;;;18.17;9.95;;;12.60;55.40;;;;;;5079652;28;20069;-46
2021/03/30 06:14:49;;;;;;;17.80;10.48;;;12.80;55.20;;;;;;5082760;28;20032;-43
2021/03/30 06:17:16;;;;;;;15.45;9.68;;;12.80;54.80;;;;;;5088211;28;20016;-43
2021/03/30 06:19:57;;;;;;;21.63;9.95;;;12.80;54.50;;;;;;5086048;28;20024;-44
2021/03/30 06:22:25;;;;;;;25.73;10.85;;;12.90;54.50;;;;;;5080501;28;20024;-50
2021/03/30 06:24:52;;;;;;;20.73;9.90;;;13.00;54.10;;;;;;5070312;28;20028;-46
2021/03/30 06:27:28;;;;;;;19.30;10.32;;;13.00;54.60;;;;;;5088666;28;20070;-43
2021/03/30 06:29:57;;;;;;;17.15;9.63;;;13.00;54.60;;;;;;5086664;28;20044;-44
2021/03/30 06:32:24;;;;;;;20.08;9.85;;;13.00;54.60;;;;;;5088679;28;20031;-43
2021/03/30 06:34:55;;;;;;;21.55;10.10;;;13.00;54.70;;;;;;5088620;28;20370;-45
2021/03/30 06:37:28;;;;;;;16.65;9.98;;;13.00;55.00;;;;;;5089054;28;20018;-46
2021/03/30 06:39:55;;;;;;;21.73;10.38;;;13.10;54.20;;;;;;5086295;28;20027;-47
2021/03/30 06:42:34;;;;;;;14.90;10.07;;;13.20;54.20;;;;;;5088812;28;20062;-44
2021/03/30 06:45:00;;;;;;;20.98;10.68;;;13.30;55.50;;;;;;5086593;28;20051;-43
2021/03/30 06:47:26;;;;;;;20.08;9.82;;;13.30;54.90;;;;;;5087590;28;20020;-43
2021/03/30 06:50:03;;;;;;;15.25;9.80;;;13.30;54.50;;;;;;5088722;28;20020;-44
2021/03/30 06:52:37;;;;;;;17.08;10.52;;;13.30;55.00;;;;;;5082658;28;20025;-47
2021/03/30 06:55:04;;;;;;;16.38;10.02;;;13.40;54.80;;;;;;5087363;28;20080;-47
2021/03/30 06:57:47;;;;;;;19.75;9.95;;;13.40;55.10;;;;;;5089014;28;20039;-46
2021/03/30 07:00:34;;;;;;;17.02;10.77;;;13.40;54.90;;;;;;5086003;28;20362;-45
2021/03/30 07:03:08;;;;;;;20.00;11.02;;;13.50;55.60;;;;;;5055379;28;20039;-46
2021/03/30 07:05:42;;;;;;;21.05;11.48;;;13.60;55.10;;;;;;5085573;28;20016;-45
2021/03/30 07:08:10;;;;;;;22.30;11.05;;;13.60;55.00;;;;;;5088689;28;20089;-44
2021/03/30 07:10:55;;;;;;;19.90;11.43;;;13.70;54.30;;;;;;5088164;28;20043;-45
2021/03/30 07:13:22;;;;;;;20.23;11.18;;;13.80;54.30;;;;;;5086945;28;20016;-47
2021/03/30 07:16:07;;;;;;;17.27;10.90;;;13.80;55.00;;;;;;5068821;28;20726;-47
2021/03/30 07:18:40;;;;;;;21.52;11.85;;;13.80;54.40;;;;;;5085336;28;20024;-45
2021/03/30 07:21:10;;;;;;;23.30;11.30;;;13.90;54.60;;;;;;5088079;28;20111;-49
2021/03/30 07:23:35;;;;;;;22.87;12.27;;;14.00;54.20;;;;;;5082398;28;20066;-45
2021/03/30 07:26:08;;;;;;;19.20;11.20;;;14.10;53.80;;;;;;5087467;28;20051;-47
2021/03/30 07:28:53;;;;;;;19.35;10.38;;;14.10;54.30;;;;;;5085536;28;20480;-46
2021/03/30 07:31:43;;;;;;;20.35;11.95;;;14.20;53.40;;;;;;5085707;28;20539;-45
2021/03/30 07:34:23;;;;;;;23.80;11.93;;;14.30;53.80;;;;;;5087549;28;20024;-45
2021/03/30 07:36:54;;;;;;;21.80;11.38;;;14.30;54.60;;;;;;5087021;28;20028;-44
2021/03/30 07:39:22;;;;;;;24.55;11.90;;;14.30;54.10;;;;;;5087681;28;20032;-44
2021/03/30 07:41:48;;;;;;;21.33;12.50;;;14.50;53.40;;;;;;5087824;28;20084;-46
2021/03/30 07:44:15;;;;;;;19.70;11.43;;;14.50;54.60;;;;;;5088473;28;20067;-44
2021/03/30 07:46:41;;;;;;;17.35;11.25;;;14.60;53.80;;;;;;5087102;28;20030;-45
2021/03/30 07:49:08;;;;;;;20.95;12.90;;;14.60;53.40;;;;;;5088499;28;20032;-45
2021/03/30 07:51:37;;;;;;;20.55;11.73;;;14.80;53.90;;;;;;5088149;28;20039;-43
2021/03/30 07:54:08;;;;;;;22.75;12.02;;;14.80;53.50;;;;;;5086792;28;20520;-44
2021/03/30 07:56:49;;;;;;;28.70;13.38;;;14.90;53.50;;;;;;5087885;28;20044;-44
2021/03/30 07:59:33;;;;;;;;;;;14.90;53.40;;;;;;5088907;28;20115;-45
2021/03/30 08:01:59;;;;;;;29.05;13.00;;;15.10;53.10;;;;;;5087958;28;20472;-44
2021/03/30 08:04:25;;;;;;;22.63;12.88;;;15.30;52.70;;;;;;5088166;28;20115;-47
2021/03/30 08:06:51;;;;;;;24.20;12.60;;;15.40;52.40;;;;;;5087577;28;20030;-45
2021/03/30 08:09:19;;;;;;;27.92;13.60;;;15.70;52.00;;;;;;5072639;28;20024;-45
2021/03/30 08:11:56;;;;;;;22.75;13.63;;;16.20;50.70;;;;;;5085757;28;20024;-45
2021/03/30 08:14:26;;;;;;;22.42;12.52;;;16.40;50.60;;;;;;5084836;28;20028;-47
2021/03/30 08:16:54;;;;;;;28.57;15.40;;;16.70;50.00;;;;;;5081759;28;20032;-45
2021/03/30 08:19:24;;;;;;;22.45;13.25;;;17.20;49.10;;;;;;5092134;28;20340;-46
2021/03/30 08:21:56;;;;;;;22.55;13.02;;;17.10;48.70;;;;;;5085988;28;20020;-45
2021/03/30 08:24:24;;;;;;;26.75;12.80;;;17.70;49.10;;;;;;5078940;28;20020;-46
2021/03/30 08:26:50;;;;;;;22.55;12.68;;;18.40;48.20;;;;;;5085417;28;20521;-48
2021/03/30 08:29:19;;;;;;;23.33;14.02;;;19.10;48.00;;;;;;5086175;28;20066;-48
2021/03/30 08:31:48;;;;;;;20.40;13.18;;;19.60;45.40;;;;;;5083759;28;20428;-46
2021/03/30 08:34:22;;;;;;;15.57;10.77;;;20.60;44.10;;;;;;5095281;28;20023;-47
2021/03/30 08:36:58;;;;;;;19.55;12.77;;;21.90;42.50;;;;;;5092402;28;20124;-46
2021/03/30 08:39:23;;;;;;;18.50;12.52;;;23.30;39.70;;;;;;5085719;28;20039;-46
2021/03/30 08:42:07;;;;;;;21.10;13.43;;;24.10;39.50;;;;;;5067467;28;20036;-46
2021/03/30 08:44:56;;;;;;;18.85;11.95;;;24.10;37.70;;;;;;5083252;28;20022;-45
2021/03/30 08:47:30;;;;;;;18.63;12.77;;;25.80;36.60;;;;;;5093888;28;20437;-47
2021/03/30 08:50:24;;;;;;;18.88;12.35;;;26.80;35.20;;;;;;5090093;28;20012;-47
2021/03/30 08:52:52;;;;;;;17.30;11.85;;;27.30;34.80;;;;;;5087216;28;20554;-45
2021/03/30 08:55:29;;;;;;;15.43;10.50;;;27.80;34.40;;;;;;5094177;28;20042;-45
2021/03/30 08:57:59;;;;;;;24.38;14.48;;;28.50;33.70;;;;;;5097960;28;20619;-46
2021/03/30 09:00:33;;;;;;;16.98;11.57;;;28.20;32.30;;;;;;5109137;28;20524;-45
2021/03/30 09:03:04;;;;;;;18.73;13.63;;;28.40;32.90;;;;;;5096845;28;20024;-45
2021/03/30 09:05:39;;;;;;;16.02;11.48;;;28.20;33.40;;;;;;5098345;28;20039;-45
2021/03/30 09:08:07;;;;;;;16.20;11.80;;;28.30;33.10;;;;;;5079733;28;20064;-47
2021/03/30 09:10:32;;;;;;;16.98;10.65;;;28.60;32.70;;;;;;5086638;28;20056;-45
2021/03/30 09:13:11;;;;;;;19.55;11.50;;;28.70;32.80;;;;;;5087988;28;20059;-45
2021/03/30 09:15:36;;;;;;;15.57;10.90;;;29.20;33.20;;;;;;5084613;28;20432;-45
2021/03/30 09:18:02;;;;;;;15.45;9.93;;;30.20;32.30;;;;;;5088101;28;20020;-47
2021/03/30 09:20:32;;;;;;;17.15;11.45;;;30.30;32.90;;;;;;5089121;28;20078;-46
2021/03/30 09:23:01;;;;;;;20.70;13.00;;;30.80;31.30;;;;;;5089246;28;20481;-46
2021/03/30 09:25:35;;;;;;;14.13;10.63;;;30.20;30.50;;;;;;5081459;28;20029;-45
2021/03/30 09:28:01;;;;;;;16.27;12.05;;;30.80;31.90;;;;;;5068954;28;20047;-48
2021/03/30 09:30:28;;;;;;;20.90;12.35;;;31.70;31.30;;;;;;5068301;28;20109;-49
2021/03/30 09:32:55;;;;;;;13.82;10.25;;;30.90;30.10;;;;;;5075322;28;20092;-45
2021/03/30 09:35:23;;;;;;;13.93;10.70;;;31.20;31.20;;;;;;5088389;28;20094;-47
2021/03/30 09:37:55;;;;;;;14.98;10.57;;;31.90;31.10;;;;;;5088378;28;20032;-45
2021/03/30 09:40:27;;;;;;;17.65;10.80;;;32.60;30.90;;;;;;5089297;28;20155;-46
2021/03/30 09:42:53;;;;;;;13.63;9.40;;;32.60;30.90;;;;;;5088740;28;20349;-45
2021/03/30 09:45:28;;;;;;;20.95;11.45;;;32.70;30.90;;;;;;5087901;28;20020;-47
2021/03/30 09:47:54;;;;;;;17.98;12.07;;;32.70;30.20;;;;;;5066602;28;20024;-47
2021/03/30 09:50:22;;;;;;;15.60;11.07;;;33.10;30.00;;;;;;5068873;28;20037;-48
2021/03/30 09:52:49;;;;;;;16.85;11.55;;;32.60;30.20;;;;;;5049854;28;20020;-45
2021/03/30 09:55:35;;;;;;;15.10;10.90;;;32.70;30.30;;;;;;5067815;28;20032;-46
2021/03/30 09:58:20;;;;;;;18.05;11.25;;;32.80;30.10;;;;;;5068377;28;20023;-46
2021/03/30 10:00:49;;;;;;;15.40;10.35;;;32.50;30.70;;;;;;5074463;28;20537;-45
2021/03/30 10:03:17;;;;;;;19.00;10.30;;;33.10;30.30;;;;;;5096219;28;20078;-45
2021/03/30 10:05:44;;;;;;;15.35;9.98;;;33.30;30.00;;;;;;5078975;28;20123;-47
2021/03/30 10:08:24;;;;;;;16.02;10.63;;;33.50;30.70;;;;;;5100316;28;20045;-45
2021/03/30 10:10:50;;;;;;;;;;;32.90;30.90;;;;;;5081360;28;20031;-46
2021/03/30 10:13:29;;;;;;;17.38;10.75;;;32.70;31.80;;;;;;5077227;28;20338;-47
2021/03/30 10:15:57;;;;;;;20.55;10.98;;;31.20;31.60;;;;;;5075099;28;20031;-45
2021/03/30 10:18:26;;;;;;;20.77;12.18;;;32.40;32.60;;;;;;5093131;28;20031;-45
2021/03/30 10:20:56;;;;;;;16.63;11.30;;;32.10;31.90;;;;;;5087705;28;20024;-46
2021/03/30 10:23:25;;;;;;;21.55;12.23;;;31.90;32.70;;;;;;5087412;28;20044;-45
2021/03/30 10:25:52;;;;;;;17.60;9.90;;;32.80;31.40;;;;;;5086623;28;20470;-46
2021/03/30 10:28:31;;;;;;;15.43;9.75;;;33.30;31.70;;;;;;5066662;28;20040;-47
2021/03/30 10:31:02;;;;;;;17.95;11.23;;;33.20;32.60;;;;;;5086596;28;20036;-45
2021/03/30 10:33:40;;;;;;;22.98;10.65;;;33.70;31.50;;;;;;5104784;28;20039;-46
2021/03/30 10:36:14;;;;;;;20.55;11.05;;;32.90;31.70;;;;;;5086396;28;20028;-46
2021/03/30 10:39:06;;;;;;;14.07;9.20;;;32.70;31.20;;;;;;5093564;28;20031;-46
2021/03/30 10:41:42;;;;;;;18.60;11.18;;;33.10;33.70;;;;;;5077844;28;20040;-46
2021/03/30 10:44:10;;;;;;;14.52;9.73;;;33.40;32.10;;;;;;5092098;28;20459;-46
2021/03/30 10:46:48;;;;;;;16.70;9.95;;;33.70;32.00;;;;;;5086132;28;20024;-45
2021/03/30 10:49:15;;;;;;;12.25;8.40;;;33.50;33.60;;;;;;5088984;28;20016;-46
2021/03/30 10:51:44;;;;;;;17.77;11.48;;;33.40;32.70;;;;;;5092463;28;20011;-47
2021/03/30 10:54:13;;;;;;;14.10;9.27;;;33.40;31.80;;;;;;5094259;28;20024;-47
2021/03/30 10:56:41;;;;;;;13.33;8.83;;;33.70;32.60;;;;;;5090309;28;20437;-46
2021/03/30 10:59:15;;;;;;;15.10;9.30;;;33.50;33.90;;;;;;5103383;28;20281;-47
2021/03/30 11:01:41;;;;;;;15.07;9.38;;;33.40;32.40;;;;;;5107090;28;20076;-46
2021/03/30 11:04:07;;;;;;;11.15;7.97;;;32.90;33.50;;;;;;5107336;28;20035;-47
2021/03/30 11:06:33;;;;;;;15.13;9.35;;;33.50;33.40;;;;;;5106954;28;20024;-49
2021/03/30 11:08:59;;;;;;;12.52;8.32;;;33.60;34.70;;;;;;5083097;28;20416;-47
2021/03/30 11:11:25;;;;;;;18.67;9.25;;;34.00;33.00;;;;;;5093839;28;20028;-49
2021/03/30 11:13:51;;;;;;;16.77;9.98;;;33.50;33.70;;;;;;5092225;28;20032;-46
2021/03/30 11:16:16;;;;;;;12.68;8.27;;;33.50;33.10;;;;;;5076011;28;20500;-46
2021/03/30 11:18:42;;;;;;;14.70;8.13;;;33.90;34.10;;;;;;5086056;28;20032;-45
2021/03/30 11:21:08;;;;;;;11.20;8.52;;;33.70;32.20;;;;;;5072489;28;20024;-46
2021/03/30 11:23:35;;;;;;;16.90;9.82;;;33.10;32.60;;;;;;5095180;28;20028;-47
2021/03/30 11:26:00;;;;;;;16.98;9.93;;;31.50;33.10;;;;;;5082764;28;20039;-46
2021/03/30 11:28:30;;;;;;;13.75;9.38;;;31.20;33.30;;;;;;5074087;28;20040;-45
2021/03/30 11:31:02;;;;;;;13.60;9.23;;;31.40;36.70;;;;;;5066626;28;20051;-45
2021/03/30 11:33:35;;;;;;;15.77;8.98;;;31.20;34.90;;;;;;5075834;28;20628;-45
2021/03/30 11:38:27;;;;;;;13.50;7.22;;;31.10;36.60;;;;;;5086226;28;20485;-46
2021/03/30 11:40:52;;;;;;;15.52;8.48;;;32.00;36.30;;;;;;5088880;28;20055;-45
2021/03/30 11:43:19;;;;;;;15.75;9.18;;;32.60;34.30;;;;;;5090656;28;20321;-47
2021/03/30 11:45:44;;;;;;;15.55;8.57;;;32.90;32.80;;;;;;5093431;28;20031;-45
2021/03/30 11:48:10;;;;;;;18.60;8.70;;;32.80;33.50;;;;;;5089632;28;20262;-45
2021/03/30 11:50:36;;;;;;;11.10;8.13;;;32.70;35.40;;;;;;5085830;28;20373;-46
2021/03/30 11:53:02;;;;;;;16.92;9.50;;;33.00;33.70;;;;;;5085980;28;20477;-46
2021/03/30 11:55:28;;;;;;;14.93;9.20;;;33.20;31.90;;;;;;5085799;28;20028;-48
2021/03/30 11:57:54;;;;;;;16.85;8.80;;;32.50;33.00;;;;;;5086218;28;20191;-47
2021/03/30 12:00:21;;;;;;;20.45;10.10;;;32.30;34.60;;;;;;5086542;28;20038;-46
2021/03/30 12:02:47;;;;;;;17.63;10.60;;;31.50;33.70;;;;;;5086489;28;20385;-46
2021/03/30 12:05:13;;;;;;;16.55;9.32;;;30.90;34.80;;;;;;5085648;28;20032;-47
2021/03/30 12:07:39;;;;;;;15.75;9.05;;;31.40;33.80;;;;;;5068199;28;20387;-46
2021/03/30 12:10:06;;;;;;;17.20;10.25;;;31.30;35.70;;;;;;5079657;28;20028;-46
2021/03/30 12:12:32;;;;;;;17.35;10.27;;;30.60;35.50;;;;;;5059351;28;20172;-47
2021/03/30 12:14:57;;;;;;;15.00;10.10;;;31.10;34.60;;;;;;5064682;28;20042;-46
2021/03/30 12:17:23;;;;;;;18.15;9.80;;;30.80;35.50;;;;;;5065615;28;20036;-46
2021/03/30 12:19:49;;;;;;;17.13;10.30;;;30.40;35.80;;;;;;5083954;28;20374;-46
2021/03/30 12:22:15;;;;;;;20.02;11.85;;;30.60;35.40;;;;;;5085092;28;20028;-46
2021/03/30 12:24:41;;;;;;;20.63;11.18;;;28.80;35.30;;;;;;5061212;28;20530;-45
2021/03/30 12:27:09;;;;;;;22.10;10.90;;;29.00;37.40;;;;;;5088498;28;20032;-45
2021/03/30 12:29:36;;;;;;;18.15;10.35;;;28.30;36.60;;;;;;5070917;28;20264;-47
2021/03/30 12:32:02;;;;;;;21.98;11.57;;;28.00;39.90;;;;;;5068889;28;20498;-45
2021/03/30 12:34:28;;;;;;;19.10;11.70;;;27.90;41.00;;;;;;5074652;28;20028;-46
2021/03/30 12:36:53;;;;;;;20.08;11.10;;;27.80;41.10;;;;;;5102423;28;20038;-45
2021/03/30 12:39:19;;;;;;;21.55;11.32;;;27.60;40.70;;;;;;5091216;28;20059;-45
2021/03/30 12:41:45;;;;;;;24.85;12.52;;;27.70;41.20;;;;;;5108831;28;20020;-45
2021/03/30 12:44:11;;;;;;;21.77;11.90;;;27.50;40.10;;;;;;5109443;28;20068;-45
2021/03/30 12:46:36;;;;;;;19.83;11.68;;;27.60;40.40;;;;;;5109078;28;20081;-46
2021/03/30 12:49:03;;;;;;;25.40;12.93;;;27.60;40.10;;;;;;5093447;28;20115;-48